Nearby METAR Reports

 

KAVP - Avoca/Wilkes B., Pennsylvania, USA
Distance from station: N 16mi, 25km
Updated: 11/16/2019 4:54pm
Clear
Clear
 Wind from ESE
Wind: ESE 3 mph , 6 km/h
Temperature: 36°F , 2°C
Dew Point: -6°F , -21°C
Humidity: 16%
Barometer: 30.39 inHg , 1029.1 hPa
Clouds: Clear
Visibility: 10 miles , 16 km
2019/11/16 21:54 KAVP 162154Z 12003KT 10SM CLR 02/M21 A3039 RMK AO2 SLP301 T00221211
KMPO - Mt. Pocono, Pennsylvania, USA
Distance from station: E 20mi, 33km
Updated: 11/16/2019 4:53pm
Clear
Clear
 Wind from E
Wind: E 7 mph , 11 km/h
Temperature: 28°F , -2°C
Wind Chill: 21°F , -6°C
Dew Point: -6°F , -21°C
Humidity: 22%
Barometer: 30.35 inHg , 1027.8 hPa
Clouds: Clear
Visibility: 10 miles , 16 km
2019/11/16 21:53 KMPO 162153Z AUTO 08006KT 10SM CLR M02/M21 A3035 RMK AO2 SLP304 T10221211
 
KABE - Allentown, Pennsylvania, USA
Distance from station: SSE 36mi, 58km
Updated: 11/16/2019 4:51pm
Clear
Clear
 Wind from NE
Wind: NE 12 mph , 19 km/h
Temperature: 36°F , 2°C
Wind Chill: 28°F , -2°C
Dew Point: -2°F , -19°C
Humidity: 20%
Barometer: 30.42 inHg , 1030.1 hPa
Clouds: Clear
Visibility: 10 miles , 16 km
2019/11/16 21:51 KABE 162151Z 04010KT 10SM CLR 02/M19 A3042 RMK AO2 SLP305 T00221189
KXLL - Allentown Queen, Pennsylvania, USA
Distance from station: SSE 41mi, 65km
Updated: 11/16/2019 4:55pm
Clear
Clear
 Wind from NNE
Wind: NNE 12 mph , 19 km/h
Temperature: 36°F , 2°C
Wind Chill: 28°F , -2°C
Dew Point: 1°F , -17°C
Humidity: 23%
Barometer: 30.43 inHg , 1030.5 hPa
Clouds: Clear
Visibility: 10 miles , 16 km
2019/11/16 21:55 KXLL 162155Z AUTO 03010KT 10SM CLR 02/M17 A3043 RMK AO2